Dades meteomassalio
Diari Summary for Juliol 15, 2017 Units:  Metric    English   Both
« Previous Day
Next Day »
Diari Semanal Mensual Anual Personalitzat
  Maxima: Minima: Mijana:
Temperatura: 33.2 °C 17.6 °C 25.3 °C
Rosada: 19.5 °C 11.5 °C 14 °C
Humitat: 68 % 35 % 51 %
Velocitat del vent: 25.9 km/h 0.0 km/h 5.7 km/h
Racha vent: 25.9 km/h - -
Vent:- - SW
Pressio: 1019.9 hPa 1014.8 hPa -
Pluja: 0.0 mm    
Historical Graphs
 
 
Tabular Data for Juliol 15, 2017
Time Temperature Dew Point Pressure Wind Wind Speed Wind Gust Humidity Rainfall Rate (Hourly) solar Conditions
00:04 24.7 °C 11.6 °C 1017.5 hPa WNW 5.6 km/h 5.6 km/h 44 % 0.0 mm 0.0 W/m2 CLR
00:09 24.5 °C 11.8 °C 1017.5 hPa WNW 11.3 km/h 11.3 km/h 45 % 0.0 mm 0.0 W/m2 CLR
00:14 24.4 °C 11.7 °C 1017.5 hPa NNW 13.0 km/h 13.0 km/h 45 % 0.0 mm 0.0 W/m2 CLR
00:19 24.2 °C 11.6 °C 1017.5 hPa West 14.5 km/h 14.5 km/h 45 % 0.0 mm 0.0 W/m2 CLR
00:24 24.2 °C 11.8 °C 1017.5 hPa NW 5.6 km/h 5.6 km/h 46 % 0.0 mm 0.0 W/m2 CLR
00:29 24.0 °C 11.7 °C 1017.5 hPa Calm     46 % 0.0 mm 0.0 W/m2 CLR
00:34 23.9 °C 11.6 °C 1017.8 hPa Calm   0.8 km/h 46 % 0.0 mm 0.0 W/m2 CLR
00:39 23.8 °C 11.8 °C 1017.8 hPa WNW 14.8 km/h 14.8 km/h 47 % 0.0 mm 0.0 W/m2 CLR
00:44 23.7 °C 12.0 °C 1017.8 hPa WNW 5.6 km/h 5.6 km/h 48 % 0.0 mm 0.0 W/m2 CLR
00:49 23.5 °C 11.8 °C 1017.8 hPa WNW 9.3 km/h 9.3 km/h 48 % 0.0 mm 0.0 W/m2 CLR
00:54 23.4 °C 12.1 °C 1018.2 hPa WNW 11.1 km/h 11.1 km/h 49 % 0.0 mm 0.0 W/m2 CLR
00:59 23.2 °C 11.9 °C 1017.8 hPa WNW 11.1 km/h 11.1 km/h 49 % 0.0 mm 0.0 W/m2 CLR
01:04 23.1 °C 12.1 °C 1017.8 hPa WNW 5.6 km/h 5.6 km/h 50 % 0.0 mm 0.0 W/m2 CLR
01:09 22.9 °C 12.2 °C 1018.2 hPa Calm     51 % 0.0 mm 0.0 W/m2 CLR
01:14 22.8 °C 12.1 °C 1018.2 hPa WNW 18.5 km/h 18.5 km/h 51 % 0.0 mm 0.0 W/m2 CLR
01:19 22.7 °C 12.0 °C 1018.2 hPa WNW 11.1 km/h   51 % 0.0 mm 0.0 W/m2 CLR
01:24 22.6 °C 12.2 °C 1018.2 hPa NNW 13.0 km/h 13.0 km/h 52 % 0.0 mm 0.0 W/m2 CLR
01:29 22.4 °C 12.1 °C 1018.2 hPa NW 13.0 km/h 13.0 km/h 52 % 0.0 mm 0.0 W/m2 CLR
01:34 22.3 °C 12.0 °C 1018.2 hPa WNW 14.8 km/h 14.8 km/h 52 % 0.0 mm 0.0 W/m2 CLR
01:39 22.3 °C 12.0 °C 1018.2 hPa NW 14.8 km/h 14.8 km/h 52 % 0.0 mm 0.0 W/m2 CLR
01:44 22.2 °C 12.2 °C 1018.2 hPa West 9.3 km/h 9.3 km/h 53 % 0.0 mm 0.0 W/m2 CLR
01:49 22.2 °C 12.2 °C 1018.2 hPa West 7.4 km/h 7.4 km/h 53 % 0.0 mm 0.0 W/m2 CLR
01:54 22.1 °C 12.1 °C 1018.5 hPa WNW 9.7 km/h 9.7 km/h 53 % 0.0 mm 0.0 W/m2 CLR
01:59 22.0 °C 12.0 °C 1018.5 hPa West 16.7 km/h 16.7 km/h 53 % 0.0 mm 0.0 W/m2 CLR
02:04 21.9 °C 12.2 °C 1018.5 hPa West 1.9 km/h   54 % 0.0 mm 0.0 W/m2 CLR
02:09 21.8 °C 12.1 °C 1018.5 hPa WNW 22.2 km/h 22.2 km/h 54 % 0.0 mm 0.0 W/m2 CLR
02:14 21.6 °C 11.9 °C 1018.5 hPa West 11.1 km/h 11.1 km/h 54 % 0.0 mm 0.0 W/m2 CLR
02:19 21.5 °C 12.1 °C 1018.5 hPa WNW 1.6 km/h 1.6 km/h 55 % 0.0 mm 0.0 W/m2 CLR
02:24 21.4 °C 12.0 °C 1018.5 hPa WNW 18.5 km/h 18.5 km/h 55 % 0.0 mm 0.0 W/m2 CLR
02:30 21.4 °C 12.0 °C 1018.5 hPa WNW 11.1 km/h 11.1 km/h 55 % 0.0 mm 0.0 W/m2 CLR
02:35 21.3 °C 11.9 °C 1018.5 hPa Calm     55 % 0.0 mm 0.0 W/m2 CLR
02:40 21.2 °C 12.1 °C 1018.5 hPa Calm     56 % 0.0 mm 0.0 W/m2 CLR
02:45 21.1 °C 12.0 °C 1018.5 hPa Calm     56 % 0.0 mm 0.0 W/m2 CLR
02:50 21.0 °C 12.2 °C 1018.5 hPa Calm     57 % 0.0 mm 0.0 W/m2 CLR
02:55 20.9 °C 12.1 °C 1018.5 hPa Calm   3.7 km/h 57 % 0.0 mm 0.0 W/m2 CLR
03:00 20.8 °C 12.0 °C 1018.5 hPa WSW 7.4 km/h   57 % 0.0 mm 0.0 W/m2 CLR
03:05 20.8 °C 11.9 °C 1018.5 hPa Calm     57 % 0.0 mm 0.0 W/m2 CLR
03:10 20.7 °C 12.1 °C 1018.5 hPa WSW 9.3 km/h 9.3 km/h 58 % 0.0 mm 0.0 W/m2 CLR
03:15 20.6 °C 12.1 °C 1018.5 hPa West 13.0 km/h 13.0 km/h 58 % 0.0 mm 0.0 W/m2 CLR
03:20 20.6 °C 12.3 °C 1018.5 hPa WSW 14.5 km/h 14.5 km/h 59 % 0.0 mm 0.0 W/m2 CLR
03:25 20.5 °C 12.2 °C 1018.5 hPa West 11.1 km/h 11.1 km/h 59 % 0.0 mm 0.0 W/m2 CLR
03:30 20.4 °C 12.2 °C 1018.5 hPa West 9.3 km/h 9.3 km/h 59 % 0.0 mm 0.0 W/m2 CLR
03:35 20.3 °C 12.1 °C 1018.5 hPa West 9.7 km/h 9.7 km/h 59 % 0.0 mm 0.0 W/m2 CLR
03:40 20.3 °C 12.0 °C 1018.5 hPa WSW 5.6 km/h 5.6 km/h 59 % 0.0 mm 0.0 W/m2 CLR
03:45 20.2 °C 12.2 °C 1018.5 hPa WNW 6.4 km/h 6.4 km/h 60 % 0.0 mm 0.0 W/m2 CLR
03:50 20.1 °C 12.1 °C 1018.5 hPa West 6.4 km/h 6.4 km/h 60 % 0.0 mm 0.0 W/m2 CLR
03:55 20.1 °C 12.1 °C 1018.5 hPa West 4.8 km/h 4.8 km/h 60 % 0.0 mm 0.0 W/m2 CLR
04:00 19.9 °C 11.9 °C 1018.5 hPa West 5.6 km/h 5.6 km/h 60 % 0.0 mm 0.0 W/m2 CLR
04:05 19.9 °C 11.9 °C 1018.5 hPa West 5.6 km/h 5.6 km/h 60 % 0.0 mm 0.0 W/m2 CLR
04:10 19.8 °C 11.8 °C 1018.5 hPa Calm     60 % 0.0 mm 0.0 W/m2 CLR
04:15 19.8 °C 12.1 °C 1018.5 hPa West 5.6 km/h 5.6 km/h 61 % 0.0 mm 0.0 W/m2 CLR
04:20 19.7 °C 11.9 °C 1018.5 hPa West 7.4 km/h 7.4 km/h 61 % 0.0 mm 0.0 W/m2 CLR
04:25 19.6 °C 11.9 °C 1018.5 hPa WNW 11.1 km/h 11.1 km/h 61 % 0.0 mm 0.0 W/m2 CLR
04:30 19.6 °C 11.8 °C 1018.5 hPa Calm   0.2 km/h 61 % 0.0 mm 0.0 W/m2 CLR
04:35 19.5 °C 12.0 °C 1018.5 hPa Calm     62 % 0.0 mm 0.0 W/m2 CLR
04:40 19.4 °C 11.9 °C 1018.5 hPa Calm     62 % 0.0 mm 0.0 W/m2 CLR
04:45 19.3 °C 11.9 °C 1018.5 hPa West 11.1 km/h 11.1 km/h 62 % 0.0 mm 0.0 W/m2 CLR
04:50 19.3 °C 11.9 °C 1018.5 hPa WSW 9.3 km/h 9.3 km/h 62 % 0.0 mm 0.0 W/m2 CLR
04:55 19.3 °C 11.8 °C 1018.5 hPa Calm     62 % 0.0 mm 0.0 W/m2 CLR
05:00 19.2 °C 11.7 °C 1018.5 hPa Calm     62 % 0.0 mm 0.0 W/m2 CLR
05:05 19.1 °C 11.8 °C 1018.5 hPa Calm     63 % 0.0 mm 0.0 W/m2 CLR
05:10 19.1 °C 11.8 °C 1018.5 hPa Calm     63 % 0.0 mm 0.0 W/m2 CLR
05:16 19.0 °C 11.8 °C 1018.5 hPa Calm     63 % 0.0 mm 0.0 W/m2 CLR
05:21 18.9 °C 11.7 °C 1018.5 hPa Calm     63 % 0.0 mm 0.0 W/m2 CLR
05:26 18.9 °C 11.7 °C 1018.5 hPa Calm     63 % 0.0 mm 0.0 W/m2 CLR
05:31 18.8 °C 11.6 °C 1018.8 hPa Calm     63 % 0.0 mm 0.0 W/m2 CLR
05:36 18.8 °C 11.6 °C 1018.8 hPa Calm     63 % 0.0 mm 0.0 W/m2 CLR
05:41 18.8 °C 11.6 °C 1018.8 hPa Calm     63 % 0.0 mm 0.0 W/m2 CLR
05:46 18.8 °C 11.8 °C 1018.8 hPa Calm     64 % 0.0 mm 0.0 W/m2 CLR
05:51 18.7 °C 11.8 °C 1018.8 hPa Calm     64 % 0.0 mm 0.0 W/m2 CLR
05:56 18.7 °C 11.7 °C 1018.8 hPa Calm     64 % 0.0 mm 0.0 W/m2 CLR
06:01 18.6 °C 11.7 °C 1018.8 hPa Calm     64 % 0.0 mm 0.0 W/m2 CLR
06:06 18.5 °C 11.8 °C 1018.8 hPa Calm     65 % 0.0 mm 0.0 W/m2 CLR
06:11 18.3 °C 11.6 °C 1018.8 hPa Calm     65 % 0.0 mm 0.0 W/m2 CLR
06:16 18.2 °C 11.8 °C 1018.8 hPa Calm     66 % 0.0 mm 0.0 W/m2 CLR
06:21 18.1 °C 11.6 °C 1018.8 hPa Calm     66 % 0.0 mm 0.0 W/m2 CLR
06:26 17.8 °C 11.6 °C 1019.2 hPa Calm     67 % 0.0 mm 0.0 W/m2 CLR
06:31 17.8 °C 11.6 °C 1019.2 hPa Calm     67 % 0.0 mm 0.0 W/m2 OVC
06:36 17.8 °C 11.6 °C 1019.2 hPa Calm     67 % 0.0 mm 0.0 W/m2 OVC
06:41 17.9 °C 11.7 °C 1019.2 hPa Calm     67 % 0.0 mm 5.0 W/m2 OVC
06:46 17.8 °C 11.6 °C 1019.2 hPa Calm     67 % 0.0 mm 7.0 W/m2 BKN
06:51 17.7 °C 11.5 °C 1019.2 hPa Calm     67 % 0.0 mm 12.0 W/m2 BKN
06:56 17.6 °C 11.6 °C 1019.2 hPa WSW 1.6 km/h 1.6 km/h 68 % 0.0 mm 14.0 W/m2 BKN
07:01 17.6 °C 11.6 °C 1019.2 hPa Calm     68 % 0.0 mm 19.0 W/m2 BKN
07:06 17.6 °C 11.6 °C 1019.2 hPa Calm     68 % 0.0 mm 21.0 W/m2 BKN
07:11 17.7 °C 11.7 °C 1019.2 hPa West 5.6 km/h 5.6 km/h 68 % 0.0 mm 26.0 W/m2 BKN
07:16 17.8 °C 11.8 °C 1019.2 hPa West 4.8 km/h 4.8 km/h 68 % 0.0 mm 32.0 W/m2 BKN
07:21 17.9 °C 11.9 °C 1019.2 hPa WSW 1.9 km/h 1.9 km/h 68 % 0.0 mm 39.0 W/m2 BKN
07:26 18.0 °C 11.8 °C 1019.5 hPa Calm     67 % 0.0 mm 47.0 W/m2 SCT
07:31 18.0 °C 12.0 °C 1019.5 hPa WSW 5.6 km/h 5.6 km/h 68 % 0.0 mm 58.0 W/m2 SCT
07:36 18.1 °C 12.1 °C 1019.5 hPa West 7.4 km/h 7.4 km/h 68 % 0.0 mm 69.0 W/m2 FEW
07:41 18.2 °C 12.0 °C 1019.5 hPa West 1.9 km/h 1.9 km/h 67 % 0.0 mm 77.0 W/m2 FEW
07:46 18.4 °C 12.2 °C 1019.5 hPa WNW 14.5 km/h 14.5 km/h 67 % 0.0 mm 90.0 W/m2 FEW
07:51 18.6 °C 12.1 °C 1019.5 hPa West 7.4 km/h 7.4 km/h 66 % 0.0 mm 105.0 W/m2 CLR
07:56 18.8 °C 12.3 °C 1019.5 hPa West 9.3 km/h 9.3 km/h 66 % 0.0 mm 121.0 W/m2 CLR
08:01 18.9 °C 12.4 °C 1019.5 hPa WNW 12.9 km/h 12.9 km/h 66 % 0.0 mm 135.0 W/m2 CLR
08:06 19.0 °C 12.3 °C 1019.5 hPa West 14.8 km/h 14.8 km/h 65 % 0.0 mm 151.0 W/m2 CLR
08:11 19.1 °C 12.4 °C 1019.5 hPa West 11.1 km/h 11.1 km/h 65 % 0.0 mm 165.0 W/m2 CLR
08:16 19.2 °C 12.5 °C 1019.5 hPa WNW 9.3 km/h 9.3 km/h 65 % 0.0 mm 186.0 W/m2 CLR
08:21 19.3 °C 12.3 °C 1019.5 hPa WSW 13.0 km/h 13.0 km/h 64 % 0.0 mm 200.0 W/m2 CLR
08:26 19.4 °C 12.4 °C 1019.5 hPa West 18.5 km/h 18.5 km/h 64 % 0.0 mm 214.0 W/m2 CLR
08:31 19.4 °C 12.2 °C 1019.5 hPa West 14.8 km/h 14.8 km/h 63 % 0.0 mm 227.0 W/m2 CLR
08:36 19.6 °C 12.6 °C 1019.5 hPa WNW 18.5 km/h 18.5 km/h 64 % 0.0 mm 246.0 W/m2 CLR
08:41 19.8 °C 12.8 °C 1019.5 hPa West 9.3 km/h 9.3 km/h 64 % 0.0 mm 258.0 W/m2 CLR
08:46 19.9 °C 12.6 °C 1019.5 hPa West 11.1 km/h 11.1 km/h 63 % 0.0 mm 276.0 W/m2 CLR
08:51 20.1 °C 12.3 °C 1019.5 hPa WNW 14.8 km/h 14.8 km/h 61 % 0.0 mm 294.0 W/m2 CLR
08:56 20.2 °C 12.7 °C 1019.5 hPa NW 7.4 km/h 7.4 km/h 62 % 0.0 mm 309.0 W/m2 CLR
09:01 20.3 °C 12.6 °C 1019.5 hPa NW 18.5 km/h 18.5 km/h 61 % 0.0 mm 325.0 W/m2 CLR
09:06 20.4 °C 12.4 °C 1019.9 hPa WNW 16.7 km/h 16.7 km/h 60 % 0.0 mm 339.0 W/m2 CLR
09:11 20.4 °C 12.4 °C 1019.9 hPa NNW 16.7 km/h 16.7 km/h 60 % 0.0 mm 350.0 W/m2 CLR
09:16 20.6 °C 12.5 °C 1019.5 hPa West 9.7 km/h 9.7 km/h 60 % 0.0 mm 367.0 W/m2 CLR
09:21 20.7 °C 12.6 °C 1019.5 hPa WNW 22.2 km/h 22.2 km/h 60 % 0.0 mm 413.0 W/m2 CLR
09:26 20.7 °C 12.7 °C 1019.9 hPa WNW 25.9 km/h 25.9 km/h 60 % 0.0 mm 469.0 W/m2 CLR
09:31 20.8 °C 12.8 °C 1019.5 hPa WNW 18.5 km/h 18.5 km/h 60 % 0.0 mm 512.0 W/m2 CLR
09:36 20.9 °C 12.6 °C 1019.5 hPa West 22.5 km/h 22.5 km/h 59 % 0.0 mm 515.0 W/m2 CLR
09:41 20.9 °C 12.6 °C 1019.5 hPa West 18.5 km/h 18.5 km/h 59 % 0.0 mm 536.0 W/m2 CLR
09:46 21.1 °C 12.4 °C 1019.5 hPa NW 20.4 km/h 20.4 km/h 58 % 0.0 mm 563.0 W/m2 CLR
09:51 21.3 °C 12.7 °C 1019.5 hPa SW 14.8 km/h 14.8 km/h 58 % 0.0 mm 610.0 W/m2 CLR
09:56 21.2 °C 12.9 °C 1019.5 hPa SW 4.8 km/h   59 % 0.0 mm 459.0 W/m2 CLR
10:01 21.4 °C 12.8 °C 1019.5 hPa WSW 3.7 km/h   58 % 0.0 mm 381.0 W/m2 CLR
10:06 21.6 °C 12.7 °C 1019.5 hPa WNW 16.7 km/h 16.7 km/h 57 % 0.0 mm 439.0 W/m2 CLR
10:11 21.8 °C 12.9 °C 1019.5 hPa WNW 14.8 km/h 14.8 km/h 57 % 0.0 mm 606.0 W/m2 CLR
10:16 22.0 °C 12.6 °C 1019.5 hPa WNW 11.1 km/h 11.1 km/h 55 % 0.0 mm 589.0 W/m2 CLR
10:21 22.1 °C 12.9 °C 1019.5 hPa NW 4.8 km/h 4.8 km/h 56 % 0.0 mm 585.0 W/m2 CLR
10:26 22.2 °C 12.7 °C 1019.5 hPa NW 14.8 km/h 14.8 km/h 55 % 0.0 mm 605.0 W/m2 CLR
10:31 22.2 °C 12.7 °C 1019.5 hPa NNW 13.0 km/h 13.0 km/h 55 % 0.0 mm 643.0 W/m2 CLR
10:36 22.4 °C 12.9 °C 1019.5 hPa Calm     55 % 0.0 mm 603.0 W/m2 CLR
10:41 22.4 °C 12.7 °C 1019.5 hPa NW 11.1 km/h 11.1 km/h 54 % 0.0 mm 605.0 W/m2 CLR
10:46 22.6 °C 13.1 °C 1019.5 hPa NW 11.1 km/h 11.1 km/h 55 % 0.0 mm 527.0 W/m2 CLR
10:51 22.6 °C 12.8 °C 1019.5 hPa WNW 9.3 km/h 9.3 km/h 54 % 0.0 mm 650.0 W/m2 CLR
10:56 22.8 °C 12.7 °C 1019.5 hPa West 7.4 km/h 7.4 km/h 53 % 0.0 mm 524.0 W/m2 CLR
11:01 22.8 °C 13.1 °C 1019.5 hPa WNW 9.3 km/h 9.3 km/h 54 % 0.0 mm 422.0 W/m2 CLR
11:06 22.6 °C 12.8 °C 1019.5 hPa Calm     54 % 0.0 mm 427.0 W/m2 CLR
11:11 22.8 °C 13.1 °C 1019.2 hPa WNW 5.6 km/h   54 % 0.0 mm 441.0 W/m2 CLR
11:16 22.9 °C 12.8 °C 1019.2 hPa Calm     53 % 0.0 mm 513.0 W/m2 CLR
11:21 23.3 °C 13.2 °C 1019.2 hPa Calm     53 % 0.0 mm 526.0 W/m2 CLR
11:26 23.7 °C 12.9 °C 1019.2 hPa West 9.3 km/h 9.3 km/h 51 % 0.0 mm 584.0 W/m2 CLR
11:31 23.7 °C 12.9 °C 1019.2 hPa NNW 9.3 km/h 9.3 km/h 51 % 0.0 mm 545.0 W/m2 CLR
11:36 23.8 °C 13.1 °C 1019.2 hPa NNW 9.3 km/h 9.3 km/h 51 % 0.0 mm 559.0 W/m2 CLR
11:41 24.2 °C 13.1 °C 1019.2 hPa Calm     50 % 0.0 mm 687.0 W/m2 CLR
11:46 24.2 °C 12.8 °C 1019.2 hPa West 13.0 km/h 13.0 km/h 49 % 0.0 mm 800.0 W/m2 CLR
11:51 24.2 °C 13.1 °C 1019.2 hPa Calm     50 % 0.0 mm 791.0 W/m2 CLR
11:56 24.3 °C 13.2 °C 1018.8 hPa Calm     50 % 0.0 mm 779.0 W/m2 CLR
12:01 24.6 °C 13.2 °C 1018.8 hPa Calm     49 % 0.0 mm 786.0 W/m2 CLR
12:06 24.9 °C 13.2 °C 1018.8 hPa West 16.7 km/h 16.7 km/h 48 % 0.0 mm 803.0 W/m2 CLR
12:11 25.1 °C 13.3 °C 1018.8 hPa Calm   2.6 km/h 48 % 0.0 mm 812.0 W/m2 CLR
12:17 25.6 °C 13.7 °C 1018.8 hPa Calm   0.3 km/h 48 % 0.0 mm 824.0 W/m2 CLR
12:22 25.7 °C 13.2 °C 1018.8 hPa Calm     46 % 0.0 mm 833.0 W/m2 CLR
12:27 26.1 °C 13.6 °C 1018.8 hPa NW 9.3 km/h 9.3 km/h 46 % 0.0 mm 840.0 W/m2 CLR
12:32 26.1 °C 13.6 °C 1018.8 hPa West 9.3 km/h 9.3 km/h 46 % 0.0 mm 847.0 W/m2 CLR
12:37 26.2 °C 13.9 °C 1018.8 hPa Calm   4.0 km/h 47 % 0.0 mm 853.0 W/m2 CLR
12:42 26.2 °C 13.7 °C 1018.8 hPa Calm     46 % 0.0 mm 860.0 W/m2 CLR
12:47 26.5 °C 13.6 °C 1018.5 hPa Calm     45 % 0.0 mm 867.0 W/m2 CLR
12:52 26.6 °C 13.7 °C 1018.5 hPa SW 7.4 km/h 7.4 km/h 45 % 0.0 mm 875.0 W/m2 CLR
12:57 26.9 °C 14.3 °C 1018.5 hPa ENE 8.0 km/h   46 % 0.0 mm 882.0 W/m2 CLR
13:02 27.2 °C 13.9 °C 1018.5 hPa ENE 13.0 km/h 13.0 km/h 44 % 0.0 mm 886.0 W/m2 CLR
13:07 27.3 °C 14.0 °C 1018.5 hPa North 9.7 km/h 9.7 km/h 44 % 0.0 mm 886.0 W/m2 CLR
13:12 27.2 °C 13.9 °C 1018.5 hPa North 9.3 km/h 9.3 km/h 44 % 0.0 mm 888.0 W/m2 CLR
13:17 27.1 °C 13.8 °C 1018.5 hPa ENE 11.1 km/h 11.1 km/h 44 % 0.0 mm 895.0 W/m2 CLR
13:22 27.1 °C 13.8 °C 1018.5 hPa ENE 14.8 km/h 14.8 km/h 44 % 0.0 mm 900.0 W/m2 CLR
13:27 27.1 °C 14.2 °C 1018.2 hPa North 8.0 km/h 8.0 km/h 45 % 0.0 mm 909.0 W/m2 CLR
13:32 27.3 °C 14.3 °C 1018.2 hPa Calm     45 % 0.0 mm 907.0 W/m2 CLR
13:37 27.6 °C 14.2 °C 1018.2 hPa East 14.8 km/h 14.8 km/h 44 % 0.0 mm 909.0 W/m2 CLR
13:42 27.5 °C 14.2 °C 1018.2 hPa ENE 9.3 km/h 9.3 km/h 44 % 0.0 mm 911.0 W/m2 CLR
13:47 27.7 °C 14.3 °C 1017.8 hPa ENE 5.6 km/h 5.6 km/h 44 % 0.0 mm 918.0 W/m2 CLR
13:52 27.8 °C 14.4 °C 1017.8 hPa East 6.4 km/h 6.4 km/h 44 % 0.0 mm 926.0 W/m2 CLR
13:57 27.7 °C 14.0 °C 1017.8 hPa ENE 5.6 km/h 5.6 km/h 43 % 0.0 mm 923.0 W/m2 CLR
14:02 27.8 °C 14.1 °C 1017.8 hPa East 14.8 km/h 14.8 km/h 43 % 0.0 mm 919.0 W/m2 CLR
14:07 28.0 °C 14.3 °C 1017.8 hPa ENE 16.7 km/h 16.7 km/h 43 % 0.0 mm 916.0 W/m2 CLR
14:12 28.1 °C 14.3 °C 1017.8 hPa Calm     43 % 0.0 mm 916.0 W/m2 CLR
14:17 28.2 °C 14.1 °C 1017.5 hPa Calm     42 % 0.0 mm 916.0 W/m2 CLR
14:22 28.5 °C 14.7 °C 1017.5 hPa NE 25.7 km/h 25.7 km/h 43 % 0.0 mm 911.0 W/m2 CLR
14:27 29.0 °C 14.8 °C 1017.5 hPa NE 13.0 km/h 13.0 km/h 42 % 0.0 mm 909.0 W/m2 CLR
14:32 29.1 °C 14.5 °C 1017.5 hPa Calm     41 % 0.0 mm 905.0 W/m2 CLR
14:37 29.4 °C 14.8 °C 1017.5 hPa NE 5.6 km/h 5.6 km/h 41 % 0.0 mm 912.0 W/m2 CLR
14:42 29.4 °C 14.8 °C 1017.5 hPa East 1.9 km/h 1.9 km/h 41 % 0.0 mm 900.0 W/m2 CLR
14:47 29.5 °C 14.9 °C 1017.2 hPa ENE 8.0 km/h 8.0 km/h 41 % 0.0 mm 905.0 W/m2 CLR
14:52 29.3 °C 14.7 °C 1017.2 hPa ENE 6.4 km/h 6.4 km/h 41 % 0.0 mm 898.0 W/m2 CLR
14:57 29.3 °C 14.7 °C 1017.2 hPa Calm     41 % 0.0 mm 895.0 W/m2 CLR
14:59 29.4 °C 15.2 °C 1017.2 hPa East 4.8 km/h 4.8 km/h 42 % 0.0 mm 893.0 W/m2 CLR
15:04 29.7 °C 14.7 °C 1017.2 hPa East 14.8 km/h 14.8 km/h 40 % 0.0 mm 888.0 W/m2 CLR
15:09 29.7 °C 15.1 °C 1017.2 hPa ENE 4.8 km/h 4.8 km/h 41 % 0.0 mm 884.0 W/m2 CLR
15:14 29.6 °C 14.9 °C 1016.8 hPa NE 4.8 km/h 4.8 km/h 41 % 0.0 mm 882.0 W/m2 CLR
15:19 30.1 °C 15.0 °C 1016.8 hPa ENE 7.4 km/h 7.4 km/h 40 % 0.0 mm 875.0 W/m2 CLR
15:24 30.4 °C 14.9 °C 1016.8 hPa NE 11.1 km/h 11.1 km/h 39 % 0.0 mm 872.0 W/m2 CLR
15:29 30.2 °C 14.7 °C 1016.8 hPa East 9.7 km/h 9.7 km/h 39 % 0.0 mm 867.0 W/m2 CLR
15:34 30.1 °C 15.3 °C 1016.8 hPa ENE 11.1 km/h 11.1 km/h 41 % 0.0 mm 860.0 W/m2 CLR
15:39 30.5 °C 15.4 °C 1016.8 hPa NNW 14.8 km/h 14.8 km/h 40 % 0.0 mm 854.0 W/m2 CLR
15:44 30.9 °C 15.3 °C 1016.8 hPa NE 9.3 km/h 9.3 km/h 39 % 0.0 mm 844.0 W/m2 CLR
15:49 30.9 °C 15.4 °C 1016.5 hPa ENE 5.6 km/h 5.6 km/h 39 % 0.0 mm 838.0 W/m2 CLR
15:54 31.1 °C 15.1 °C 1016.5 hPa Calm     38 % 0.0 mm 828.0 W/m2 CLR
15:59 31.3 °C 15.3 °C 1016.5 hPa Calm     38 % 0.0 mm 824.0 W/m2 CLR
16:04 31.1 °C 15.1 °C 1016.5 hPa Calm     38 % 0.0 mm 816.0 W/m2 CLR
16:09 31.3 °C 14.9 °C 1016.5 hPa NW 16.7 km/h 16.7 km/h 37 % 0.0 mm 802.0 W/m2 CLR
16:14 31.3 °C 14.8 °C 1016.5 hPa NW 9.3 km/h 9.3 km/h 37 % 0.0 mm 798.0 W/m2 CLR
16:19 31.2 °C 15.2 °C 1016.5 hPa Calm     38 % 0.0 mm 784.0 W/m2 CLR
16:24 31.4 °C 15.0 °C 1016.1 hPa Calm     37 % 0.0 mm 775.0 W/m2 CLR
16:29 31.8 °C 15.3 °C 1016.1 hPa Calm     37 % 0.0 mm 770.0 W/m2 CLR
16:34 31.8 °C 14.9 °C 1016.1 hPa NE 8.0 km/h 8.0 km/h 36 % 0.0 mm 756.0 W/m2 CLR
16:39 31.9 °C 15.0 °C 1015.8 hPa ENE 7.4 km/h 7.4 km/h 36 % 0.0 mm 745.0 W/m2 CLR
16:44 32.2 °C 15.3 °C 1015.8 hPa Calm     36 % 0.0 mm 744.0 W/m2 CLR
16:49 32.3 °C 15.3 °C 1015.8 hPa NNW 9.3 km/h 9.3 km/h 36 % 0.0 mm 731.0 W/m2 CLR
16:54 32.2 °C 15.3 °C 1015.8 hPa NE 9.3 km/h 9.3 km/h 36 % 0.0 mm 719.0 W/m2 CLR
16:59 32.1 °C 15.1 °C 1015.8 hPa ENE 1.9 km/h 1.9 km/h 36 % 0.0 mm 707.0 W/m2 CLR
17:04 31.8 °C 15.3 °C 1015.5 hPa Calm     37 % 0.0 mm 694.0 W/m2 CLR
17:09 32.1 °C 15.6 °C 1015.5 hPa NNE 13.0 km/h 13.0 km/h 37 % 0.0 mm 682.0 W/m2 CLR
17:14 32.3 °C 15.3 °C 1015.5 hPa NNW 9.3 km/h 9.3 km/h 36 % 0.0 mm 671.0 W/m2 CLR
17:19 32.3 °C 15.3 °C 1015.5 hPa WNW 3.7 km/h   36 % 0.0 mm 654.0 W/m2 CLR
17:24 32.4 °C 15.4 °C 1015.5 hPa Calm     36 % 0.0 mm 643.0 W/m2 CLR
17:29 32.8 °C 15.7 °C 1015.5 hPa Calm     36 % 0.0 mm 631.0 W/m2 CLR
17:34 33.1 °C 15.6 °C 1015.1 hPa Calm     35 % 0.0 mm 619.0 W/m2 CLR
17:39 33.2 °C 15.7 °C 1015.1 hPa Calm     35 % 0.0 mm 606.0 W/m2 CLR
17:44 33.2 °C 15.7 °C 1015.1 hPa East 7.4 km/h 7.4 km/h 35 % 0.0 mm 587.0 W/m2 CLR
17:49 32.9 °C 15.4 °C 1015.1 hPa ENE 7.4 km/h 7.4 km/h 35 % 0.0 mm 577.0 W/m2 CLR
17:54 32.5 °C 15.9 °C 1015.1 hPa NNE 5.6 km/h 5.6 km/h 37 % 0.0 mm 568.0 W/m2 CLR
17:59 32.5 °C 15.5 °C 1015.1 hPa Calm     36 % 0.0 mm 552.0 W/m2 CLR
18:04 32.3 °C 15.8 °C 1015.1 hPa Calm     37 % 0.0 mm 536.0 W/m2 CLR
18:09 32.4 °C 15.8 °C 1015.1 hPa North 9.7 km/h 9.7 km/h 37 % 0.0 mm 520.0 W/m2 CLR
18:14 32.4 °C 15.9 °C 1015.5 hPa NNE 7.4 km/h 7.4 km/h 37 % 0.0 mm 508.0 W/m2 CLR
18:19 32.5 °C 15.9 °C 1015.5 hPa NE 5.6 km/h 5.6 km/h 37 % 0.0 mm 490.0 W/m2 CLR
18:24 32.6 °C 16.0 °C 1015.5 hPa NE 1.9 km/h   37 % 0.0 mm 475.0 W/m2 CLR
18:29 32.7 °C 16.1 °C 1015.5 hPa Calm     37 % 0.0 mm 464.0 W/m2 CLR
18:34 32.9 °C 16.3 °C 1015.5 hPa ENE 5.6 km/h 5.6 km/h 37 % 0.0 mm 448.0 W/m2 CLR
18:39 32.8 °C 15.8 °C 1015.1 hPa NNE 6.4 km/h 6.4 km/h 36 % 0.0 mm 434.0 W/m2 CLR
18:44 32.8 °C 16.2 °C 1015.1 hPa NE 5.6 km/h 5.6 km/h 37 % 0.0 mm 417.0 W/m2 CLR
18:49 32.9 °C 16.3 °C 1015.1 hPa NE 11.1 km/h 11.1 km/h 37 % 0.0 mm 403.0 W/m2 CLR
18:54 32.8 °C 16.2 °C 1015.1 hPa NE 11.1 km/h 11.1 km/h 37 % 0.0 mm 388.0 W/m2 CLR
19:00 32.9 °C 16.3 °C 1014.8 hPa Calm     37 % 0.0 mm 373.0 W/m2 CLR
19:05 33.0 °C 16.4 °C 1014.8 hPa Calm     37 % 0.0 mm 353.0 W/m2 CLR
19:10 33.2 °C 16.1 °C 1015.1 hPa Calm     36 % 0.0 mm 341.0 W/m2 CLR
19:15 33.2 °C 16.1 °C 1014.8 hPa NE 5.6 km/h 5.6 km/h 36 % 0.0 mm 325.0 W/m2 CLR
19:20 33.1 °C 16.1 °C 1014.8 hPa Calm     36 % 0.0 mm 308.0 W/m2 CLR
19:25 32.9 °C 15.9 °C 1014.8 hPa NNW 5.6 km/h 5.6 km/h 36 % 0.0 mm 292.0 W/m2 CLR
19:30 32.9 °C 16.3 °C 1015.1 hPa WNW 3.7 km/h   37 % 0.0 mm 274.0 W/m2 CLR
19:35 33.1 °C 16.0 °C 1014.8 hPa NNW 5.6 km/h 5.6 km/h 36 % 0.0 mm 258.0 W/m2 CLR
19:40 32.9 °C 16.3 °C 1015.1 hPa WNW 9.3 km/h 9.3 km/h 37 % 0.0 mm 248.0 W/m2 CLR
19:41 32.9 °C 16.3 °C 1015.1 hPa WNW 3.7 km/h   37 % 0.0 mm 243.0 W/m2 CLR
19:46 32.9 °C 16.3 °C 1014.8 hPa NNE 9.3 km/h 9.3 km/h 37 % 0.0 mm 225.0 W/m2 CLR
19:51 32.8 °C 16.2 °C 1015.1 hPa North 5.6 km/h 5.6 km/h 37 % 0.0 mm 206.0 W/m2 CLR
19:56 32.8 °C 16.2 °C 1015.1 hPa North 1.9 km/h 1.9 km/h 37 % 0.0 mm 190.0 W/m2 CLR
20:01 32.7 °C 16.1 °C 1015.1 hPa NNW 5.6 km/h 5.6 km/h 37 % 0.0 mm 174.0 W/m2 CLR
20:06 32.6 °C 16.0 °C 1015.1 hPa NNW 3.7 km/h   37 % 0.0 mm 156.0 W/m2 CLR
20:11 32.6 °C 16.0 °C 1015.1 hPa Calm     37 % 0.0 mm 141.0 W/m2 CLR
20:16 32.5 °C 15.9 °C 1015.1 hPa Calm     37 % 0.0 mm 125.0 W/m2 CLR
20:21 32.6 °C 16.4 °C 1015.1 hPa North 1.9 km/h 1.9 km/h 38 % 0.0 mm 109.0 W/m2 CLR
20:26 32.4 °C 16.3 °C 1015.1 hPa North 1.9 km/h 1.9 km/h 38 % 0.0 mm 97.0 W/m2 CLR
20:31 32.4 °C 16.7 °C 1015.1 hPa Calm     39 % 0.0 mm 81.0 W/m2 FEW
20:36 32.3 °C 16.6 °C 1015.1 hPa Calm     39 % 0.0 mm 69.0 W/m2 FEW
20:41 32.1 °C 16.4 °C 1015.1 hPa North 7.4 km/h 7.4 km/h 39 % 0.0 mm 58.0 W/m2 SCT
20:46 31.8 °C 16.5 °C 1015.1 hPa North 1.9 km/h   40 % 0.0 mm 47.0 W/m2 SCT
20:51 31.6 °C 16.7 °C 1015.1 hPa Calm     41 % 0.0 mm 37.0 W/m2 BKN
20:56 31.4 °C 16.6 °C 1015.5 hPa Calm     41 % 0.0 mm 28.0 W/m2 BKN
21:01 31.2 °C 16.7 °C 1015.1 hPa Calm     42 % 0.0 mm 21.0 W/m2 BKN
21:06 31.0 °C 16.6 °C 1015.1 hPa Calm     42 % 0.0 mm 19.0 W/m2 BKN
21:11 30.7 °C 16.3 °C 1015.5 hPa Calm     42 % 0.0 mm 16.0 W/m2 BKN
21:16 30.5 °C 16.5 °C 1015.5 hPa Calm     43 % 0.0 mm 12.0 W/m2 BKN
21:21 30.3 °C 16.7 °C 1015.5 hPa Calm     44 % 0.0 mm 11.0 W/m2 BKN
21:26 30.1 °C 16.9 °C 1015.5 hPa Calm     45 % 0.0 mm 7.0 W/m2 BKN
21:31 29.9 °C 16.7 °C 1015.5 hPa ENE 1.9 km/h 1.9 km/h 45 % 0.0 mm 5.0 W/m2 OVC
21:36 29.8 °C 17.9 °C 1015.5 hPa Calm     49 % 0.0 mm 0.0 W/m2 OVC
21:41 29.6 °C 18.4 °C 1015.8 hPa Calm     51 % 0.0 mm 0.0 W/m2 CLR
21:46 29.4 °C 18.6 °C 1015.8 hPa Calm     52 % 0.0 mm 0.0 W/m2 CLR
21:51 29.2 °C 18.7 °C 1015.8 hPa Calm     53 % 0.0 mm 0.0 W/m2 CLR
21:56 29.0 °C 18.4 °C 1015.8 hPa Calm     53 % 0.0 mm 0.0 W/m2 CLR
22:01 28.8 °C 18.3 °C 1015.8 hPa Calm     53 % 0.0 mm 0.0 W/m2 CLR
22:06 28.6 °C 18.4 °C 1016.1 hPa Calm     54 % 0.0 mm 0.0 W/m2 CLR
22:11 28.4 °C 18.6 °C 1016.1 hPa Calm     55 % 0.0 mm 0.0 W/m2 CLR
22:16 28.3 °C 18.7 °C 1016.1 hPa Calm     56 % 0.0 mm 0.0 W/m2 CLR
22:17 28.3 °C 18.7 °C 1016.1 hPa Calm     56 % 0.0 mm 0.0 W/m2 CLR
22:22 28.1 °C 18.7 °C 1016.5 hPa Calm     57 % 0.0 mm 0.0 W/m2 CLR
22:27 28.0 °C 19.5 °C 1016.5 hPa Calm     60 % 0.0 mm 0.0 W/m2 CLR
22:32 27.9 °C 19.4 °C 1016.5 hPa Calm     60 % 0.0 mm 0.0 W/m2 CLR
22:37 27.8 °C 19.1 °C 1016.5 hPa Calm     59 % 0.0 mm 0.0 W/m2 CLR
22:42 27.4 °C 19.0 °C 1016.5 hPa Calm     60 % 0.0 mm 0.0 W/m2 CLR
22:47 27.1 °C 19.2 °C 1016.8 hPa Calm     62 % 0.0 mm 0.0 W/m2 CLR
22:52 26.8 °C 17.6 °C 1016.8 hPa Calm     57 % 0.0 mm 0.0 W/m2 CLR
22:57 26.6 °C 18.2 °C 1016.8 hPa Calm     60 % 0.0 mm 0.0 W/m2 CLR
23:02 26.3 °C 18.2 °C 1016.8 hPa Calm     61 % 0.0 mm 0.0 W/m2 CLR
23:07 26.1 °C 18.0 °C 1016.8 hPa Calm     61 % 0.0 mm 0.0 W/m2 CLR
23:12 25.9 °C 17.3 °C 1017.2 hPa Calm     59 % 0.0 mm 0.0 W/m2 CLR
23:17 25.7 °C 16.8 °C 1017.2 hPa Calm     58 % 0.0 mm 0.0 W/m2 CLR
23:22 25.5 °C 16.9 °C 1017.2 hPa Calm     59 % 0.0 mm 0.0 W/m2 CLR
23:27 25.3 °C 17.0 °C 1017.2 hPa Calm     60 % 0.0 mm 0.0 W/m2 CLR
23:32 25.1 °C 16.3 °C 1017.2 hPa Calm     58 % 0.0 mm 0.0 W/m2 CLR
23:37 24.9 °C 16.3 °C 1017.2 hPa Calm     59 % 0.0 mm 0.0 W/m2 CLR
23:42 24.7 °C 16.4 °C 1017.2 hPa Calm     60 % 0.0 mm 0.0 W/m2 CLR
23:47 24.6 °C 16.3 °C 1017.2 hPa Calm     60 % 0.0 mm 0.0 W/m2 CLR
23:52 24.5 °C 16.2 °C 1017.5 hPa Calm     60 % 0.0 mm 0.0 W/m2 CLR
23:57 24.3 °C 16.1 °C 1017.5 hPa Calm     60 % 0.0 mm 0.0 W/m2 CLR
Lo Temps de Massalio
Compliments of Weather Underground - 1.25 mb